Time;durP1;ratioP1;P1;durP2;ratioP2;P2;SDS_P1;SDS_P2;PMS_P1;PMS_P2;Temp;Humidity;BMP_temperature;BMP_pressure;BME280_temperature;BME280_humidity;BME280_pressure;Samples;Min_cycle;Max_cycle;Signal;HPM_P1;HPM_P2
2022/02/04 00:27:57;;;;;;;3.85;3.65;;;15.80;63.50;;;;;;4945045;28;20520;-18
2022/02/04 00:30:28;;;;;;;4.35;3.97;;;15.70;63.50;;;;;;4940505;28;20094;-18
2022/02/04 00:32:57;;;;;;;4.13;3.83;;;15.70;63.60;;;;;;4940392;28;20047;-18
2022/02/04 00:38:24;;;;;;;4.17;3.87;;;15.70;63.60;;;;;;4940700;28;20075;-18
2022/02/04 00:40:54;;;;;;;3.63;3.33;;;15.70;63.70;;;;;;4940430;28;20051;-19
2022/02/04 00:43:20;;;;;;;3.67;3.40;;;15.70;63.60;;;;;;4940793;28;20440;-18
2022/02/04 00:53:34;;;;;;;3.63;3.33;;;15.70;63.50;;;;;;4940028;28;20478;-18
2022/02/04 00:56:19;;;;;;;3.15;2.95;;;15.80;63.30;;;;;;4940105;28;20055;-18
2022/02/04 01:26:04;;;;;;;2.67;2.47;;;15.70;63.40;;;;;;4958902;28;20039;-18
2022/02/04 01:28:34;;;;;;;3.25;3.03;;;15.70;63.50;;;;;;4942565;28;20058;-18
2022/02/04 01:31:00;;;;;;;2.88;2.67;;;15.60;63.60;;;;;;4939539;28;20075;-18
2022/02/04 01:33:26;;;;;;;2.92;2.63;;;15.70;63.60;;;;;;4939134;28;20050;-19
2022/02/04 01:35:54;;;;;;;2.50;2.30;;;15.70;63.60;;;;;;4939110;28;20491;-19
2022/02/04 01:38:20;;;;;;;2.50;2.30;;;15.70;63.60;;;;;;4939822;28;20058;-18
2022/02/04 01:40:46;;;;;;;2.25;2.15;;;15.70;63.60;;;;;;4939780;28;20407;-18
2022/02/04 01:43:12;;;;;;;2.70;2.50;;;15.70;63.60;;;;;;4939043;28;20054;-18
2022/02/04 01:45:37;;;;;;;2.47;2.28;;;15.70;63.60;;;;;;4952034;28;20043;-18
2022/02/04 01:48:03;;;;;;;2.33;2.20;;;15.70;63.70;;;;;;4958396;28;20531;-19
2022/02/04 01:50:30;;;;;;;2.35;2.15;;;15.60;63.50;;;;;;4939561;28;20055;-19
2022/02/04 01:52:56;;;;;;;2.78;2.45;;;15.70;63.70;;;;;;4938878;28;20070;-18
2022/02/04 01:55:22;;;;;;;2.03;1.92;;;15.60;63.80;;;;;;4940957;28;20126;-18
2022/02/04 01:57:48;;;;;;;2.63;2.42;;;15.60;63.80;;;;;;4939195;28;20111;-18
2022/02/04 02:00:14;;;;;;;2.85;2.65;;;15.60;63.80;;;;;;4938612;28;20525;-19
2022/02/04 02:02:39;;;;;;;2.50;2.30;;;15.70;63.80;;;;;;4939216;28;20052;-19
2022/02/04 02:05:05;;;;;;;2.25;2.15;;;15.60;63.70;;;;;;4938507;28;20072;-19
2022/02/04 02:07:32;;;;;;;2.22;2.13;;;15.70;63.50;;;;;;4939153;28;20047;-18
2022/02/04 02:10:06;;;;;;;1.80;1.70;;;15.60;63.60;;;;;;4938991;28;20500;-18
2022/02/04 02:12:44;;;;;;;2.00;1.90;;;15.60;63.80;;;;;;4938943;28;20090;-18
2022/02/04 02:41:16;;;;;;;1.85;1.73;;;15.60;64.00;;;;;;4938326;28;20045;-18
2022/02/04 03:02:51;;;;;;;1.63;1.52;;;15.50;64.20;;;;;;4949245;28;20062;-18
2022/02/04 03:05:17;;;;;;;1.67;1.58;;;15.50;64.20;;;;;;4937614;28;20134;-19
2022/02/04 03:07:42;;;;;;;1.98;1.88;;;15.50;64.20;;;;;;4937975;28;20086;-18
2022/02/04 03:10:08;;;;;;;1.65;1.55;;;15.60;64.00;;;;;;4937475;28;20036;-18
2022/02/04 03:12:34;;;;;;;1.70;1.60;;;15.60;64.00;;;;;;4938028;28;20134;-18
2022/02/04 03:15:00;;;;;;;1.50;1.40;;;15.60;63.90;;;;;;4937058;28;20046;-18
2022/02/04 03:17:26;;;;;;;1.45;1.35;;;15.60;64.10;;;;;;4938214;28;20052;-19
2022/02/04 03:19:56;;;;;;;1.80;1.70;;;15.50;64.20;;;;;;4938260;28;20043;-18
2022/02/04 03:22:22;;;;;;;1.38;1.33;;;15.50;64.30;;;;;;4937485;28;20043;-18
2022/02/04 03:24:56;;;;;;;1.73;1.63;;;15.60;64.20;;;;;;4937863;28;20051;-18
2022/02/04 03:27:23;;;;;;;;;;;15.50;64.20;;;;;;4937916;28;20137;-18
2022/02/04 03:30:14;;;;;;;1.50;1.40;;;15.60;64.00;;;;;;4938065;28;20011;-18
2022/02/04 03:32:42;;;;;;;1.60;1.50;;;15.60;63.80;;;;;;4937528;28;20047;-18
2022/02/04 03:35:07;;;;;;;1.23;1.23;;;15.50;64.10;;;;;;4936850;28;20098;-18
2022/02/04 03:37:33;;;;;;;0.95;0.95;;;15.50;64.30;;;;;;4938330;28;20063;-18
2022/02/04 03:39:58;;;;;;;1.27;1.20;;;15.60;64.20;;;;;;4936909;28;20051;-18
2022/02/04 03:42:24;;;;;;;0.93;0.93;;;15.60;64.20;;;;;;4940266;28;20516;-18
2022/02/04 03:44:50;;;;;;;1.35;1.25;;;15.50;64.30;;;;;;4955980;28;20412;-18
2022/02/04 03:47:15;;;;;;;1.30;1.20;;;15.50;64.40;;;;;;4942693;28;20162;-18
2022/02/04 03:49:41;;;;;;;1.30;1.20;;;15.50;64.40;;;;;;4963633;28;20050;-18
2022/02/04 03:52:06;;;;;;;1.52;1.42;;;15.50;64.40;;;;;;4975488;28;20049;-18
2022/02/04 03:54:32;;;;;;;1.38;1.30;;;15.50;64.60;;;;;;4967108;28;20051;-18
2022/02/04 03:56:58;;;;;;;1.35;1.25;;;15.50;64.60;;;;;;4942115;28;20055;-19
2022/02/04 03:59:26;;;;;;;1.48;1.38;;;15.50;64.40;;;;;;4937314;28;20052;-18
2022/02/04 04:01:52;;;;;;;1.27;1.20;;;15.60;64.30;;;;;;4938500;28;20114;-18
2022/02/04 04:04:18;;;;;;;1.40;1.30;;;15.50;64.40;;;;;;4940910;28;20058;-18
2022/02/04 04:06:44;;;;;;;1.13;1.13;;;15.50;64.30;;;;;;4941147;28;20047;-19
2022/02/04 04:09:09;;;;;;;1.35;1.30;;;15.60;64.30;;;;;;4940645;28;20460;-18
2022/02/04 04:11:35;;;;;;;1.35;1.25;;;15.50;64.40;;;;;;4941179;28;20059;-18
2022/02/04 04:14:01;;;;;;;1.10;1.00;;;15.50;64.40;;;;;;4940175;28;20472;-19
2022/02/04 04:16:26;;;;;;;1.30;1.20;;;15.50;64.70;;;;;;4941630;28;20060;-19
2022/02/04 04:18:52;;;;;;;1.23;1.13;;;15.50;64.60;;;;;;4941238;28;20083;-18
2022/02/04 04:21:17;;;;;;;1.08;1.08;;;15.50;65.40;;;;;;4940589;28;20632;-18
2022/02/04 04:23:43;;;;;;;1.30;1.20;;;15.50;64.80;;;;;;4941154;28;20570;-18
2022/02/04 04:26:08;;;;;;;1.27;1.17;;;15.50;64.60;;;;;;4940074;28;20111;-18
2022/02/04 04:28:34;;;;;;;1.00;1.00;;;15.50;64.40;;;;;;4940851;28;20055;-18
2022/02/04 04:31:00;;;;;;;0.95;0.95;;;15.50;64.20;;;;;;4940208;28;20055;-18
2022/02/04 04:33:25;;;;;;;1.30;1.20;;;15.50;65.30;;;;;;4940962;28;20050;-18
2022/02/04 04:35:51;;;;;;;0.95;0.95;;;15.50;64.60;;;;;;4940627;28;20032;-18
2022/02/04 05:29:53;;;;;;;0.80;0.80;;;15.50;64.40;;;;;;4932199;28;20047;-18
2022/02/04 05:32:18;;;;;;;0.65;0.65;;;15.50;64.60;;;;;;4939709;28;20527;-19
2022/02/04 05:34:49;;;;;;;0.80;0.80;;;15.40;64.90;;;;;;4939689;28;20050;-18
2022/02/04 05:37:16;;;;;;;0.80;0.80;;;15.40;64.90;;;;;;4939188;28;20559;-18
2022/02/04 05:39:58;;;;;;;0.70;0.60;;;15.40;65.00;;;;;;4959066;28;20053;-18
2022/02/04 05:42:28;;;;;;;0.80;0.80;;;15.40;65.00;;;;;;4960859;28;20054;-18
2022/02/04 05:45:02;;;;;;;0.65;0.65;;;15.40;64.90;;;;;;4956945;28;20060;-18
2022/02/04 05:47:28;;;;;;;1.00;1.00;;;15.40;64.90;;;;;;4953520;28;20052;-19
2022/02/04 05:50:19;;;;;;;0.70;0.70;;;15.40;65.00;;;;;;4957412;28;20090;-19
2022/02/04 06:24:04;;;;;;;0.60;0.60;;;15.40;64.90;;;;;;4954408;28;20111;-19
2022/02/04 06:26:31;;;;;;;0.60;0.60;;;15.40;65.00;;;;;;4954427;28;20074;-19
2022/02/04 06:28:56;;;;;;;0.65;0.65;;;15.40;65.00;;;;;;4956592;28;20440;-18
2022/02/04 06:31:22;;;;;;;0.70;0.70;;;15.40;64.90;;;;;;4953831;28;20117;-19
2022/02/04 06:33:48;;;;;;;0.45;0.45;;;15.40;65.00;;;;;;4954577;28;20043;-19
2022/02/04 06:36:14;;;;;;;0.70;0.70;;;15.50;64.90;;;;;;4955715;28;20106;-18
2022/02/04 06:38:39;;;;;;;0.40;0.40;;;15.40;65.00;;;;;;4956123;28;20130;-19
2022/02/04 06:41:05;;;;;;;0.77;0.77;;;15.40;65.00;;;;;;4953774;28;20789;-19
2022/02/04 06:43:31;;;;;;;0.50;0.50;;;15.40;64.90;;;;;;4956404;28;20098;-20
2022/02/04 06:45:57;;;;;;;0.40;0.40;;;15.40;65.00;;;;;;4950322;28;20058;-19
2022/02/04 06:48:22;;;;;;;0.40;0.40;;;15.40;65.10;;;;;;4952625;28;20064;-19
2022/02/04 06:50:48;;;;;;;0.40;0.40;;;15.40;65.20;;;;;;4954419;28;20094;-19
2022/02/04 06:53:14;;;;;;;0.40;0.40;;;15.40;65.00;;;;;;4954465;28;20565;-19
2022/02/04 06:55:40;;;;;;;0.50;0.50;;;15.40;64.90;;;;;;4950643;28;20059;-19
2022/02/04 06:58:07;;;;;;;0.47;0.47;;;15.40;65.00;;;;;;4954050;28;20996;-22
2022/02/04 07:00:32;;;;;;;0.40;0.40;;;15.40;64.90;;;;;;4958461;28;20050;-18
2022/02/04 07:02:58;;;;;;;0.40;0.40;;;15.40;65.10;;;;;;4954029;28;20137;-18
2022/02/04 07:05:25;;;;;;;0.50;0.50;;;15.40;65.10;;;;;;4965565;28;20135;-18
2022/02/04 07:08:02;;;;;;;0.50;0.30;;;15.40;65.00;;;;;;4958329;28;20077;-19
2022/02/04 07:10:55;;;;;;;0.50;0.50;;;15.40;65.00;;;;;;4954973;28;20042;-19
2022/02/04 07:13:27;;;;;;;0.30;0.30;;;15.40;65.10;;;;;;4958095;28;20062;-18
2022/02/04 07:17:07;;;;;;;0.40;0.40;;;15.40;65.10;;;;;;4956542;28;20055;-18
2022/02/04 07:21:32;;;;;;;0.50;0.50;;;15.40;65.00;;;;;;4955515;28;20065;-18
2022/02/04 07:23:57;;;;;;;0.40;0.40;;;15.40;65.10;;;;;;4965928;28;20046;-20
2022/02/04 07:26:23;;;;;;;0.50;0.50;;;15.40;65.00;;;;;;4961581;28;20039;-19
2022/02/04 07:28:48;;;;;;;0.40;0.40;;;15.40;65.00;;;;;;4960009;28;20091;-18
2022/02/04 07:31:15;;;;;;;0.40;0.40;;;15.40;65.10;;;;;;4957800;28;20094;-20
2022/02/04 07:33:48;;;;;;;0.40;0.40;;;15.40;64.90;;;;;;4957329;28;20049;-18
2022/02/04 07:41:42;;;;;;;1.98;0.40;;;15.40;64.90;;;;;;4954841;28;20140;-18
2022/02/04 07:44:08;;;;;;;1.80;0.40;;;15.40;64.80;;;;;;4956224;28;20055;-18
2022/02/04 07:46:33;;;;;;;0.60;0.47;;;15.40;64.50;;;;;;4953813;28;20536;-18
2022/02/04 07:48:59;;;;;;;0.50;0.30;;;15.40;64.60;;;;;;4957218;28;20409;-18
2022/02/04 07:51:25;;;;;;;0.32;0.32;;;15.40;64.40;;;;;;4955976;28;20043;-18
2022/02/04 07:53:50;;;;;;;0.60;0.40;;;15.40;64.40;;;;;;4957806;28;20194;-18
2022/02/04 07:56:20;;;;;;;0.50;0.40;;;15.40;64.50;;;;;;4955689;28;20504;-18
2022/02/04 07:58:59;;;;;;;0.70;0.45;;;15.30;64.40;;;;;;4953938;28;20059;-18
2022/02/04 08:01:29;;;;;;;0.35;0.35;;;15.40;64.60;;;;;;4953035;28;20039;-18
2022/02/04 08:06:41;;;;;;;0.45;0.45;;;15.40;64.50;;;;;;4955320;28;20099;-18
2022/02/04 08:14:24;;;;;;;0.47;0.47;;;15.40;65.30;;;;;;4955694;28;20518;-19
2022/02/04 08:17:12;;;;;;;0.40;0.40;;;15.30;64.40;;;;;;4956260;28;20257;-18
2022/02/04 08:31:22;;;;;;;0.40;0.40;;;15.40;64.20;;;;;;4955955;28;20054;-18
2022/02/04 08:46:52;;;;;;;0.20;0.20;;;15.40;64.50;;;;;;4936747;28;20047;-19
2022/02/04 08:54:51;;;;;;;0.30;0.30;;;15.30;64.60;;;;;;4976806;28;20049;-19
2022/02/04 09:00:09;;;;;;;0.32;0.30;;;15.40;64.40;;;;;;4948596;28;20050;-18
2022/02/04 09:02:37;;;;;;;0.40;0.40;;;15.30;64.60;;;;;;4948283;28;20051;-18
2022/02/04 09:05:05;;;;;;;0.35;0.32;;;15.40;64.50;;;;;;4947454;28;20043;-18
2022/02/04 09:07:44;;;;;;;0.50;0.50;;;15.30;64.80;;;;;;4958601;28;20042;-18
2022/02/04 09:10:12;;;;;;;0.30;0.30;;;15.40;64.30;;;;;;4959641;28;20043;-18
2022/02/04 09:21:14;;;;;;;0.50;0.30;;;15.40;64.40;;;;;;4958763;28;20050;-19
2022/02/04 09:23:08;;;;;;;1.20;0.40;;;15.40;64.30;;;;;;4958609;28;20047;-18
2022/02/04 09:25:34;;;;;;;0.20;0.20;;;15.40;64.30;;;;;;4957844;28;20098;-18
2022/02/04 09:27:59;;;;;;;1.58;0.38;;;15.40;64.70;;;;;;4958506;28;20106;-19
2022/02/04 09:30:25;;;;;;;0.40;0.30;;;15.40;64.50;;;;;;4940658;28;20651;-18
2022/02/04 09:32:51;;;;;;;0.60;0.30;;;15.50;64.30;;;;;;4959038;28;20039;-18
2022/02/04 09:35:18;;;;;;;1.27;0.35;;;15.40;64.00;;;;;;4950172;28;20040;-18
2022/02/04 09:37:46;;;;;;;0.47;0.30;;;15.40;64.10;;;;;;4947085;28;20051;-19
2022/02/04 09:40:12;;;;;;;0.25;0.25;;;15.40;64.00;;;;;;4959012;28;20054;-18
2022/02/04 09:42:38;;;;;;;0.85;0.30;;;15.40;63.90;;;;;;4958761;28;20496;-18
2022/02/04 09:45:07;;;;;;;0.30;0.30;;;15.50;64.20;;;;;;4953956;28;20040;-18
2022/02/04 09:47:37;;;;;;;0.40;0.40;;;15.50;63.80;;;;;;4957674;28;20048;-18
2022/02/04 09:50:05;;;;;;;0.95;0.50;;;15.40;64.00;;;;;;4969740;28;20106;-19
2022/02/04 10:22:03;;;;;;;0.85;0.85;;;15.70;64.90;;;;;;4957875;28;20046;-23
2022/02/04 10:24:29;;;;;;;0.80;0.80;;;15.70;64.90;;;;;;4941049;28;20585;-18
2022/02/04 10:27:16;;;;;;;0.90;0.70;;;15.70;64.70;;;;;;4951131;28;20407;-19
2022/02/04 10:29:43;;;;;;;1.05;0.90;;;15.70;64.70;;;;;;4956786;28;20488;-19
2022/02/04 10:32:08;;;;;;;0.88;0.88;;;15.70;64.80;;;;;;4962509;28;20047;-19
2022/02/04 10:34:37;;;;;;;0.82;0.82;;;15.80;64.40;;;;;;4954672;28;20571;-19
2022/02/04 10:37:15;;;;;;;1.63;1.52;;;15.80;64.00;;;;;;4957819;28;20047;-19
2022/02/04 10:40:08;;;;;;;1.60;1.50;;;15.80;64.30;;;;;;4957616;28;20093;-18
2022/02/04 10:42:38;;;;;;;2.08;1.98;;;15.80;64.30;;;;;;4944518;28;20107;-19
2022/02/04 11:01:59;;;;;;;2.72;2.53;;;15.80;64.30;;;;;;4951852;28;20075;-18
2022/02/04 11:36:46;;;;;;;3.47;3.17;;;15.90;63.20;;;;;;4951179;28;20057;-18
2022/02/04 11:56:56;;;;;;;4.95;4.43;;;15.90;66.00;;;;;;4953105;28;20079;-19
2022/02/04 11:59:37;;;;;;;4.18;3.88;;;16.00;66.70;;;;;;4951101;28;20059;-19
2022/02/04 12:02:21;;;;;;;4.30;4.00;;;16.00;66.00;;;;;;4940611;28;20035;-19
2022/02/04 12:04:47;;;;;;;3.95;3.65;;;16.00;66.10;;;;;;4950004;28;20415;-19
2022/02/04 12:07:32;;;;;;;4.65;4.25;;;16.00;66.00;;;;;;4951632;28;20044;-19
2022/02/04 12:09:58;;;;;;;4.20;3.90;;;16.00;65.80;;;;;;4945159;28;20078;-19
2022/02/04 12:12:52;;;;;;;4.57;4.18;;;16.00;66.30;;;;;;4950541;28;20073;-19
2022/02/04 12:15:32;;;;;;;4.63;4.30;;;16.00;65.50;;;;;;4949913;28;20051;-19
2022/02/04 12:18:00;;;;;;;5.68;5.18;;;16.00;65.70;;;;;;4947840;28;20066;-19
2022/02/04 12:20:44;;;;;;;4.90;4.50;;;16.00;65.80;;;;;;4952732;28;20142;-18
2022/02/04 12:23:09;;;;;;;4.47;4.18;;;16.00;65.70;;;;;;4953051;28;20049;-19
2022/02/04 12:26:09;;;;;;;5.10;4.35;;;16.10;66.40;;;;;;4952896;28;20134;-18
2022/02/04 12:28:34;;;;;;;5.05;4.55;;;16.10;65.30;;;;;;4949852;28;20055;-18
2022/02/04 12:31:09;;;;;;;4.65;4.35;;;16.10;65.20;;;;;;4956804;28;20058;-18
2022/02/04 12:33:46;;;;;;;4.78;4.47;;;16.10;65.40;;;;;;4954749;28;20118;-19
2022/02/04 12:36:15;;;;;;;4.85;4.55;;;16.10;65.30;;;;;;4944034;28;20044;-18
2022/02/04 12:38:41;;;;;;;4.97;4.57;;;16.00;65.20;;;;;;4953339;28;20053;-19
2022/02/04 12:41:07;;;;;;;4.40;4.10;;;16.10;65.50;;;;;;4950938;28;20471;-19
2022/02/04 12:43:36;;;;;;;4.75;4.35;;;16.10;65.60;;;;;;4952635;28;20043;-22
2022/02/04 12:46:03;;;;;;;4.28;4.03;;;16.10;65.30;;;;;;4956410;28;20075;-19
2022/02/04 12:48:28;;;;;;;4.80;4.50;;;16.10;65.50;;;;;;4954492;28;20111;-19
2022/02/04 12:50:54;;;;;;;4.90;4.50;;;16.10;65.30;;;;;;4954968;28;20570;-19
2022/02/04 12:53:27;;;;;;;4.38;4.07;;;16.00;65.00;;;;;;4956429;28;20055;-18
2022/02/04 12:56:22;;;;;;;4.28;3.60;;;16.10;65.40;;;;;;4947206;28;20067;-18
2022/02/04 13:09:52;;;;;;;2.50;2.30;;;16.10;65.30;;;;;;4956932;28;20492;-19
2022/02/04 13:12:18;;;;;;;2.13;2.03;;;16.10;65.30;;;;;;4961773;28;20043;-18
2022/02/04 13:14:46;;;;;;;3.08;2.40;;;16.10;65.20;;;;;;4966038;28;20043;-18
2022/02/04 13:17:11;;;;;;;2.20;1.98;;;16.10;65.80;;;;;;4965557;28;20420;-18
2022/02/04 13:19:37;;;;;;;1.92;1.83;;;16.10;65.30;;;;;;4967854;28;20043;-19
2022/02/04 13:22:02;;;;;;;2.00;1.90;;;16.10;64.90;;;;;;4959337;28;20055;-19
2022/02/04 13:24:28;;;;;;;1.88;1.77;;;16.10;64.70;;;;;;4958953;28;20061;-19
2022/02/04 13:26:54;;;;;;;1.70;1.60;;;16.10;64.80;;;;;;4948129;28;20412;-18
2022/02/04 13:29:26;;;;;;;2.05;1.50;;;16.20;64.70;;;;;;4978459;28;20049;-18
2022/02/04 13:31:51;;;;;;;1.50;1.40;;;16.20;64.80;;;;;;4952820;28;20472;-19
2022/02/04 13:34:19;;;;;;;1.90;1.80;;;16.20;64.70;;;;;;4958300;28;20047;-18
2022/02/04 13:36:50;;;;;;;1.45;1.35;;;16.20;64.80;;;;;;4958847;28;20061;-19
2022/02/04 13:39:25;;;;;;;1.55;1.45;;;16.20;64.80;;;;;;4958478;28;20044;-19
2022/02/04 13:50:28;;;;;;;2.10;1.90;;;16.20;65.10;;;;;;4962732;28;20595;-18
2022/02/04 13:53:03;;;;;;;1.88;1.77;;;16.30;64.60;;;;;;4973116;28;20077;-19
2022/02/04 13:58:27;;;;;;;2.95;1.98;;;16.30;65.20;;;;;;4956243;28;20143;-18
2022/02/04 14:03:50;;;;;;;2.20;2.10;;;16.30;64.90;;;;;;4958513;28;20053;-18
2022/02/04 14:06:19;;;;;;;2.58;2.38;;;16.30;65.10;;;;;;4950661;28;20047;-18
2022/02/04 14:08:58;;;;;;;1.92;1.83;;;16.30;64.90;;;;;;4939218;28;20051;-19
2022/02/04 14:11:51;;;;;;;2.00;1.90;;;16.30;65.10;;;;;;4948108;28;20047;-19
2022/02/04 14:14:26;;;;;;;2.10;2.00;;;16.30;65.00;;;;;;4955198;28;20055;-18
2022/02/04 14:17:04;;;;;;;2.00;1.90;;;16.30;65.10;;;;;;4950683;28;20071;-18
2022/02/04 14:19:29;;;;;;;2.10;2.00;;;16.30;65.00;;;;;;4950676;28;20476;-19
2022/02/04 14:21:57;;;;;;;1.80;1.70;;;16.30;65.00;;;;;;4967680;28;20055;-19
2022/02/04 14:24:23;;;;;;;1.95;1.85;;;16.30;65.10;;;;;;4967538;28;20101;-18
2022/02/04 14:26:55;;;;;;;1.88;1.77;;;16.30;65.10;;;;;;4957897;28;20043;-18
2022/02/04 14:29:34;;;;;;;1.60;1.50;;;16.30;65.00;;;;;;4957961;28;20074;-18
2022/02/04 14:32:10;;;;;;;1.80;1.70;;;16.30;65.00;;;;;;4958126;28;20035;-19
2022/02/04 14:34:53;;;;;;;2.03;1.92;;;16.30;65.10;;;;;;4957694;28;20086;-19
2022/02/04 14:37:55;;;;;;;2.42;1.95;;;16.30;65.00;;;;;;4957777;28;20050;-18
2022/02/04 14:54:03;;;;;;;;;;;16.40;64.90;;;;;;4960724;28;20416;-19
2022/02/04 15:01:50;;;;;;;1.77;1.15;;;16.30;64.80;;;;;;4970141;28;20050;-19
2022/02/04 15:04:25;;;;;;;1.77;1.67;;;16.30;64.90;;;;;;4952536;28;20075;-18
2022/02/04 15:06:58;;;;;;;1.40;1.30;;;16.40;64.70;;;;;;4945384;28;20055;-18
2022/02/04 15:09:24;;;;;;;1.52;1.42;;;16.40;64.20;;;;;;4948421;28;20111;-18
2022/02/04 15:11:50;;;;;;;2.92;1.52;;;16.40;64.20;;;;;;4953737;28;20046;-18
2022/02/04 15:14:18;;;;;;;1.40;1.30;;;16.40;64.20;;;;;;4943632;28;20066;-18
2022/02/04 15:16:45;;;;;;;1.67;1.58;;;16.30;64.10;;;;;;4952745;28;20085;-18
2022/02/04 15:19:10;;;;;;;1.45;1.35;;;16.30;64.70;;;;;;4956720;28;20078;-18
2022/02/04 15:21:37;;;;;;;1.80;1.70;;;16.40;64.80;;;;;;4950252;28;20129;-18
2022/02/04 15:24:03;;;;;;;1.48;1.38;;;16.40;64.60;;;;;;4953405;28;20186;-18
2022/02/04 15:26:29;;;;;;;1.52;1.42;;;16.40;64.20;;;;;;4949949;28;20134;-20
2022/02/04 15:31:31;;;;;;;2.22;1.83;;;16.40;63.90;;;;;;4948983;28;20051;-19
2022/02/04 15:33:57;;;;;;;1.25;1.23;;;16.40;64.10;;;;;;4951086;28;20050;-18
2022/02/04 15:36:24;;;;;;;1.48;1.38;;;16.40;63.80;;;;;;4950667;28;20476;-18
2022/02/04 15:38:51;;;;;;;1.40;1.30;;;16.40;64.00;;;;;;4950664;28;20047;-18
2022/02/04 15:41:17;;;;;;;1.30;1.20;;;16.40;63.90;;;;;;4960181;28;20051;-18
2022/02/04 15:43:48;;;;;;;3.24;1.41;;;16.40;64.00;;;;;;4612754;28;10000529;-18
2022/02/04 15:54:03;;;;;;;1.80;1.50;;;16.40;63.50;;;;;;4957334;28;20046;-18
2022/02/04 15:56:50;;;;;;;1.13;1.05;;;16.40;63.50;;;;;;4961405;28;20515;-18
2022/02/04 16:04:27;;;;;;;1.25;1.20;;;16.40;63.60;;;;;;4962785;28;20062;-18
2022/02/04 16:06:53;;;;;;;1.25;1.25;;;16.40;63.40;;;;;;4954653;28;20106;-19
2022/02/04 16:09:22;;;;;;;1.63;1.52;;;16.40;63.90;;;;;;4956181;28;20048;-19
2022/02/04 16:14:31;;;;;;;1.92;1.70;;;16.40;64.10;;;;;;4952194;28;20081;-19
2022/02/04 16:17:09;;;;;;;2.00;1.80;;;16.40;64.20;;;;;;4952917;28;22218;-18
2022/02/04 16:19:42;;;;;;;2.17;1.60;;;16.30;64.00;;;;;;4949506;28;20130;-18
2022/02/04 16:22:18;;;;;;;1.77;1.58;;;16.30;64.00;;;;;;4956156;28;20039;-18
2022/02/04 16:25:10;;;;;;;1.48;1.38;;;16.30;63.80;;;;;;4954671;28;20046;-19
2022/02/04 16:30:05;;;;;;;1.23;1.10;;;16.30;64.50;;;;;;4955045;28;20053;-18
2022/02/04 16:32:31;;;;;;;1.30;1.20;;;16.30;63.70;;;;;;4944303;28;20044;-19
2022/02/04 16:35:00;;;;;;;2.15;1.60;;;16.30;63.80;;;;;;4944981;28;20055;-19
2022/02/04 16:37:30;;;;;;;1.55;1.38;;;16.30;63.90;;;;;;4954887;28;20043;-18
2022/02/04 16:39:56;;;;;;;1.55;1.45;;;16.30;63.90;;;;;;4955967;28;20084;-18
2022/02/04 16:42:22;;;;;;;1.40;1.30;;;16.20;63.90;;;;;;4951661;28;20066;-19
2022/02/04 16:44:47;;;;;;;1.58;1.48;;;16.20;64.10;;;;;;4953099;28;20542;-19
2022/02/04 16:47:13;;;;;;;1.58;1.48;;;16.20;64.00;;;;;;4950956;28;20840;-18
2022/02/04 16:49:39;;;;;;;3.72;1.50;;;16.30;64.40;;;;;;4955375;28;20121;-18
2022/02/04 16:52:05;;;;;;;1.65;1.27;;;16.30;64.00;;;;;;4947687;28;20051;-18
2022/02/04 16:54:33;;;;;;;1.33;1.30;;;16.20;63.90;;;;;;4964587;28;20139;-18
2022/02/04 16:56:58;;;;;;;1.48;1.38;;;16.20;63.90;;;;;;4974958;28;20146;-18
2022/02/04 16:59:24;;;;;;;1.25;0.90;;;16.20;64.00;;;;;;4975634;28;20067;-18
2022/02/04 17:01:50;;;;;;;2.25;1.13;;;16.20;63.90;;;;;;4956683;28;20044;-18
2022/02/04 17:04:16;;;;;;;1.52;1.15;;;16.20;63.90;;;;;;4955037;28;20050;-18
2022/02/04 17:06:46;;;;;;;1.23;1.13;;;16.20;64.00;;;;;;4951556;28;20185;-18
2022/02/04 17:11:44;;;;;;;2.30;1.40;;;16.20;64.00;;;;;;4946253;28;20046;-18
2022/02/04 17:14:10;;;;;;;1.92;1.30;;;16.20;63.90;;;;;;4947146;28;20043;-18
2022/02/04 17:16:41;;;;;;;1.17;1.13;;;16.20;63.80;;;;;;4939818;28;20062;-18
2022/02/04 17:19:11;;;;;;;1.30;1.20;;;16.10;63.90;;;;;;4944817;28;20102;-18
2022/02/04 17:21:40;;;;;;;1.00;0.90;;;16.20;64.00;;;;;;4958771;28;20046;-18
2022/02/04 17:24:11;;;;;;;1.10;1.10;;;16.20;63.80;;;;;;4957595;28;20051;-18
2022/02/04 17:26:36;;;;;;;1.42;1.20;;;16.20;64.30;;;;;;4956209;28;20094;-18
2022/02/04 17:29:02;;;;;;;2.38;1.10;;;16.20;64.00;;;;;;4611539;28;10000574;-18
2022/02/04 17:31:28;;;;;;;0.88;0.88;;;16.10;64.00;;;;;;4954721;28;20412;-18
2022/02/04 17:33:53;;;;;;;0.90;0.80;;;16.10;63.90;;;;;;4952951;28;20047;-18
2022/02/04 17:36:19;;;;;;;1.50;1.40;;;16.20;63.80;;;;;;4956463;28;20508;-18
2022/02/04 17:38:44;;;;;;;2.70;2.50;;;16.20;63.80;;;;;;4953649;28;20083;-19
2022/02/04 17:41:12;;;;;;;3.25;3.00;;;16.10;64.00;;;;;;4953484;28;20401;-18
2022/02/04 17:43:40;;;;;;;3.42;3.13;;;16.20;63.60;;;;;;4954258;28;20062;-18
2022/02/04 17:46:06;;;;;;;4.15;3.80;;;16.20;63.50;;;;;;4957313;28;20051;-18
2022/02/04 17:48:44;;;;;;;5.32;4.88;;;16.10;63.50;;;;;;4954334;28;20059;-18
2022/02/04 17:54:08;;;;;;;5.30;4.90;;;16.20;64.00;;;;;;4949001;28;20154;-18
2022/02/04 17:57:00;;;;;;;5.43;4.57;;;16.10;64.10;;;;;;4954627;28;20047;-18
2022/02/04 18:00:03;;;;;;;6.32;5.72;;;16.10;64.60;;;;;;4953766;28;20607;-18
2022/02/04 18:02:34;;;;;;;6.50;5.40;;;16.20;64.30;;;;;;4945157;28;20055;-19
2022/02/04 18:05:22;;;;;;;7.00;5.78;;;16.20;64.40;;;;;;4953644;28;20062;-18
2022/02/04 18:07:49;;;;;;;6.40;5.72;;;16.20;64.60;;;;;;4948414;28;20047;-18
2022/02/04 18:10:15;;;;;;;7.45;5.88;;;16.10;64.60;;;;;;4954604;28;20546;-18
2022/02/04 18:12:40;;;;;;;11.23;5.50;;;16.10;64.60;;;;;;4948733;28;20138;-18
2022/02/04 18:15:06;;;;;;;6.38;5.65;;;16.10;64.50;;;;;;4953704;28;20051;-18
2022/02/04 18:17:32;;;;;;;6.57;5.68;;;16.10;64.80;;;;;;4953747;28;20043;-18
2022/02/04 18:19:57;;;;;;;5.60;5.10;;;16.20;64.30;;;;;;4946194;28;20868;-18
2022/02/04 18:22:23;;;;;;;5.80;5.30;;;16.20;64.40;;;;;;4959089;28;20563;-19
2022/02/04 18:24:49;;;;;;;5.65;5.22;;;16.10;65.20;;;;;;4951255;28;20047;-19
2022/02/04 18:27:15;;;;;;;5.43;4.95;;;16.20;64.40;;;;;;4953558;28;20103;-18
2022/02/04 18:29:45;;;;;;;5.25;4.85;;;16.20;64.30;;;;;;4951709;28;20114;-18
2022/02/04 18:32:10;;;;;;;5.00;4.60;;;16.20;64.50;;;;;;4949300;28;20773;-18
2022/02/04 18:34:36;;;;;;;5.13;4.70;;;16.10;64.30;;;;;;4948577;28;20047;-18
2022/02/04 18:37:03;;;;;;;5.10;4.70;;;16.20;64.40;;;;;;4946737;28;20459;-18
2022/02/04 18:44:49;;;;;;;4.78;4.38;;;16.20;64.20;;;;;;4953671;28;20148;-18
2022/02/04 18:47:33;;;;;;;4.70;4.30;;;16.20;64.30;;;;;;4953927;28;20077;-18
2022/02/04 18:50:04;;;;;;;4.85;4.47;;;16.10;64.30;;;;;;4952240;28;20051;-18
2022/02/04 18:52:57;;;;;;;4.38;4.07;;;16.20;64.70;;;;;;4953989;28;20070;-18
2022/02/04 18:58:08;;;;;;;5.40;4.30;;;16.20;64.00;;;;;;4954276;28;20054;-18
2022/02/04 19:00:34;;;;;;;4.22;3.95;;;16.20;64.00;;;;;;4950003;28;20121;-18
2022/02/04 19:03:03;;;;;;;4.50;4.20;;;16.20;64.40;;;;;;4952622;28;20075;-18
2022/02/04 19:05:33;;;;;;;4.90;4.50;;;16.20;64.20;;;;;;4951824;28;20039;-18
2022/02/04 19:10:54;;;;;;;4.22;3.90;;;16.20;63.70;;;;;;4950026;28;20107;-18
2022/02/04 19:13:24;;;;;;;4.07;3.70;;;16.20;64.10;;;;;;4953094;28;20651;-18
2022/02/04 19:18:42;;;;;;;4.72;4.32;;;16.30;63.90;;;;;;4951624;28;20609;-19
2022/02/04 19:21:12;;;;;;;4.28;3.90;;;16.30;64.20;;;;;;4950384;28;20053;-18
2022/02/04 19:23:46;;;;;;;4.00;3.70;;;16.20;63.80;;;;;;4950572;28;20047;-19
2022/02/04 19:26:16;;;;;;;4.32;3.97;;;16.20;63.90;;;;;;4952870;28;20720;-19
2022/02/04 19:28:42;;;;;;;4.05;3.75;;;16.20;64.00;;;;;;4936382;28;20085;-19
2022/02/04 19:31:07;;;;;;;3.97;3.60;;;16.30;64.00;;;;;;4953503;28;20073;-19
2022/02/04 19:33:33;;;;;;;4.28;3.88;;;16.20;64.00;;;;;;4951301;28;20043;-18
2022/02/04 19:35:59;;;;;;;3.28;3.08;;;16.20;63.60;;;;;;4952103;28;20094;-18
2022/02/04 19:38:25;;;;;;;6.80;4.10;;;16.30;63.90;;;;;;4949090;28;20039;-18
2022/02/04 19:40:51;;;;;;;4.10;3.78;;;16.30;64.10;;;;;;4953055;28;20048;-18
2022/02/04 19:43:20;;;;;;;4.18;3.80;;;16.20;63.80;;;;;;4949157;28;20523;-19
2022/02/04 19:46:04;;;;;;;4.65;4.25;;;16.30;63.80;;;;;;4949765;28;20079;-19
2022/02/04 19:48:33;;;;;;;4.50;4.20;;;16.30;64.70;;;;;;4950082;28;20074;-18
2022/02/04 20:07:41;;;;;;;3.47;3.00;;;16.20;63.90;;;;;;4942033;28;20062;-19
2022/02/04 20:26:53;;;;;;;3.33;3.13;;;16.20;63.90;;;;;;4950431;28;20140;-18
2022/02/04 20:29:19;;;;;;;3.13;2.90;;;16.20;63.70;;;;;;4948121;28;20043;-19
2022/02/04 20:31:45;;;;;;;3.30;3.10;;;16.20;63.80;;;;;;4949818;28;20146;-18
2022/02/04 20:34:10;;;;;;;3.22;3.03;;;16.20;63.80;;;;;;4952039;28;20075;-19
2022/02/04 20:36:36;;;;;;;2.85;2.65;;;16.20;63.70;;;;;;4947494;28;20472;-18
2022/02/04 20:39:03;;;;;;;2.97;2.78;;;16.20;63.90;;;;;;4952314;28;20043;-18
2022/02/04 20:41:31;;;;;;;3.10;2.90;;;16.20;63.60;;;;;;4951307;28;20420;-18
2022/02/04 20:43:56;;;;;;;3.15;2.95;;;16.20;63.70;;;;;;4950291;28;20071;-18